sensor_id;sensor_type;location;lat;lon;timestamp;P1;durP1;ratioP1;P2;durP2;ratioP2
21188;SDS011;39071;52.420;20.896;2022-09-09T00:04:29;9.70;;;5.33;;
21188;SDS011;39071;52.420;20.896;2022-09-09T00:09:28;10.23;;;5.30;;
21188;SDS011;39071;52.420;20.896;2022-09-09T00:11:58;11.07;;;5.57;;
21188;SDS011;39071;52.420;20.896;2022-09-09T00:22:49;9.23;;;5.80;;
21188;SDS011;39071;52.420;20.896;2022-09-09T00:27:56;8.60;;;5.80;;
21188;SDS011;39071;52.420;20.896;2022-09-09T00:30:31;8.63;;;5.73;;
21188;SDS011;39071;52.420;20.896;2022-09-09T00:33:00;9.30;;;5.87;;
21188;SDS011;39071;52.420;20.896;2022-09-09T00:35:34;11.80;;;5.87;;
21188;SDS011;39071;52.420;20.896;2022-09-09T00:38:12;12.50;;;5.23;;
21188;SDS011;39071;52.420;20.896;2022-09-09T00:40:45;13.00;;;5.60;;
21188;SDS011;39071;52.420;20.896;2022-09-09T00:43:28;12.13;;;5.57;;
21188;SDS011;39071;52.420;20.896;2022-09-09T00:48:36;9.63;;;5.57;;
21188;SDS011;39071;52.420;20.896;2022-09-09T00:51:36;12.07;;;5.23;;
21188;SDS011;39071;52.420;20.896;2022-09-09T00:56:56;11.73;;;5.50;;
21188;SDS011;39071;52.420;20.896;2022-09-09T00:59:47;11.60;;;6.10;;
21188;SDS011;39071;52.420;20.896;2022-09-09T01:04:53;8.40;;;5.10;;
21188;SDS011;39071;52.420;20.896;2022-09-09T01:07:19;15.13;;;6.67;;
21188;SDS011;39071;52.420;20.896;2022-09-09T01:12:30;10.30;;;6.17;;
21188;SDS011;39071;52.420;20.896;2022-09-09T01:23:14;10.43;;;6.27;;
21188;SDS011;39071;52.420;20.896;2022-09-09T01:28:42;12.47;;;6.10;;
21188;SDS011;39071;52.420;20.896;2022-09-09T01:31:11;10.10;;;6.27;;
21188;SDS011;39071;52.420;20.896;2022-09-09T01:33:43;8.00;;;5.57;;
21188;SDS011;39071;52.420;20.896;2022-09-09T01:36:11;10.70;;;6.53;;
21188;SDS011;39071;52.420;20.896;2022-09-09T01:38:38;12.93;;;6.33;;
21188;SDS011;39071;52.420;20.896;2022-09-09T01:41:04;11.50;;;6.33;;
21188;SDS011;39071;52.420;20.896;2022-09-09T01:43:30;9.43;;;6.00;;
21188;SDS011;39071;52.420;20.896;2022-09-09T01:45:56;13.60;;;6.37;;
21188;SDS011;39071;52.420;20.896;2022-09-09T01:48:25;12.27;;;6.23;;
21188;SDS011;39071;52.420;20.896;2022-09-09T01:50:52;10.70;;;5.90;;
21188;SDS011;39071;52.420;20.896;2022-09-09T01:53:18;10.93;;;6.30;;
21188;SDS011;39071;52.420;20.896;2022-09-09T01:58:53;10.23;;;6.43;;
21188;SDS011;39071;52.420;20.896;2022-09-09T02:01:42;9.37;;;6.33;;
21188;SDS011;39071;52.420;20.896;2022-09-09T02:06:59;13.33;;;6.30;;
21188;SDS011;39071;52.420;20.896;2022-09-09T02:09:25;13.70;;;6.57;;
21188;SDS011;39071;52.420;20.896;2022-09-09T02:11:59;12.10;;;7.03;;
21188;SDS011;39071;52.420;20.896;2022-09-09T02:14:43;12.07;;;7.17;;
21188;SDS011;39071;52.420;20.896;2022-09-09T02:17:15;12.87;;;6.60;;
21188;SDS011;39071;52.420;20.896;2022-09-09T02:19:55;9.60;;;6.07;;
21188;SDS011;39071;52.420;20.896;2022-09-09T02:22:27;10.03;;;6.43;;
21188;SDS011;39071;52.420;20.896;2022-09-09T02:24:54;13.13;;;7.20;;
21188;SDS011;39071;52.420;20.896;2022-09-09T02:27:23;9.40;;;6.50;;
21188;SDS011;39071;52.420;20.896;2022-09-09T02:29:49;12.17;;;7.17;;
21188;SDS011;39071;52.420;20.896;2022-09-09T02:32:19;10.93;;;6.53;;
21188;SDS011;39071;52.420;20.896;2022-09-09T02:34:48;12.13;;;7.47;;
21188;SDS011;39071;52.420;20.896;2022-09-09T02:37:27;12.73;;;7.27;;
21188;SDS011;39071;52.420;20.896;2022-09-09T02:40:01;12.47;;;7.20;;
21188;SDS011;39071;52.420;20.896;2022-09-09T02:42:31;12.73;;;6.77;;
21188;SDS011;39071;52.420;20.896;2022-09-09T02:44:57;9.43;;;6.20;;
21188;SDS011;39071;52.420;20.896;2022-09-09T02:47:29;9.93;;;6.47;;
21188;SDS011;39071;52.420;20.896;2022-09-09T02:52:50;10.60;;;6.13;;
21188;SDS011;39071;52.420;20.896;2022-09-09T02:58:01;16.30;;;6.87;;
21188;SDS011;39071;52.420;20.896;2022-09-09T03:00:31;11.63;;;6.83;;
21188;SDS011;39071;52.420;20.896;2022-09-09T03:02:57;12.53;;;6.83;;
21188;SDS011;39071;52.420;20.896;2022-09-09T03:05:23;13.57;;;7.20;;
21188;SDS011;39071;52.420;20.896;2022-09-09T03:07:50;12.33;;;7.03;;
21188;SDS011;39071;52.420;20.896;2022-09-09T03:10:16;10.30;;;6.23;;
21188;SDS011;39071;52.420;20.896;2022-09-09T03:12:42;9.17;;;5.87;;
21188;SDS011;39071;52.420;20.896;2022-09-09T03:15:08;10.87;;;6.37;;
21188;SDS011;39071;52.420;20.896;2022-09-09T03:17:34;9.50;;;6.90;;
21188;SDS011;39071;52.420;20.896;2022-09-09T03:20:01;12.70;;;7.27;;
21188;SDS011;39071;52.420;20.896;2022-09-09T03:22:28;12.03;;;6.53;;
21188;SDS011;39071;52.420;20.896;2022-09-09T03:24:54;10.00;;;5.93;;
21188;SDS011;39071;52.420;20.896;2022-09-09T03:27:19;11.83;;;6.50;;
21188;SDS011;39071;52.420;20.896;2022-09-09T03:29:45;10.60;;;5.97;;
21188;SDS011;39071;52.420;20.896;2022-09-09T03:32:12;11.87;;;6.83;;
21188;SDS011;39071;52.420;20.896;2022-09-09T03:34:38;8.90;;;6.07;;
21188;SDS011;39071;52.420;20.896;2022-09-09T03:37:07;11.93;;;6.63;;
21188;SDS011;39071;52.420;20.896;2022-09-09T03:39:33;10.30;;;6.80;;
21188;SDS011;39071;52.420;20.896;2022-09-09T03:41:58;11.47;;;5.63;;
21188;SDS011;39071;52.420;20.896;2022-09-09T03:44:24;12.57;;;6.57;;
21188;SDS011;39071;52.420;20.896;2022-09-09T03:46:50;11.27;;;6.57;;
21188;SDS011;39071;52.420;20.896;2022-09-09T03:49:15;10.20;;;6.33;;
21188;SDS011;39071;52.420;20.896;2022-09-09T03:51:44;8.53;;;6.03;;
21188;SDS011;39071;52.420;20.896;2022-09-09T03:54:10;11.77;;;6.80;;
21188;SDS011;39071;52.420;20.896;2022-09-09T03:56:35;12.00;;;6.93;;
21188;SDS011;39071;52.420;20.896;2022-09-09T03:59:01;11.23;;;6.97;;
21188;SDS011;39071;52.420;20.896;2022-09-09T04:01:28;11.37;;;6.43;;
21188;SDS011;39071;52.420;20.896;2022-09-09T04:03:54;10.83;;;6.37;;
21188;SDS011;39071;52.420;20.896;2022-09-09T04:06:23;10.83;;;6.00;;
21188;SDS011;39071;52.420;20.896;2022-09-09T04:08:49;10.07;;;5.60;;
21188;SDS011;39071;52.420;20.896;2022-09-09T04:11:17;8.60;;;6.13;;
21188;SDS011;39071;52.420;20.896;2022-09-09T04:13:43;9.67;;;6.50;;
21188;SDS011;39071;52.420;20.896;2022-09-09T04:16:10;10.50;;;6.57;;
21188;SDS011;39071;52.420;20.896;2022-09-09T04:18:36;11.77;;;6.13;;
21188;SDS011;39071;52.420;20.896;2022-09-09T04:21:02;10.40;;;6.73;;
21188;SDS011;39071;52.420;20.896;2022-09-09T04:23:29;11.20;;;6.67;;
21188;SDS011;39071;52.420;20.896;2022-09-09T04:25:55;10.27;;;6.73;;
21188;SDS011;39071;52.420;20.896;2022-09-09T04:28:23;8.83;;;6.23;;
21188;SDS011;39071;52.420;20.896;2022-09-09T04:30:50;11.53;;;6.77;;
21188;SDS011;39071;52.420;20.896;2022-09-09T04:33:17;10.03;;;6.37;;
21188;SDS011;39071;52.420;20.896;2022-09-09T04:35:47;9.77;;;6.30;;
21188;SDS011;39071;52.420;20.896;2022-09-09T04:38:14;10.40;;;6.50;;
21188;SDS011;39071;52.420;20.896;2022-09-09T04:40:42;9.57;;;6.33;;
21188;SDS011;39071;52.420;20.896;2022-09-09T04:43:09;11.40;;;6.10;;
21188;SDS011;39071;52.420;20.896;2022-09-09T04:45:34;11.57;;;7.00;;
21188;SDS011;39071;52.420;20.896;2022-09-09T04:48:00;10.93;;;6.13;;
21188;SDS011;39071;52.420;20.896;2022-09-09T04:50:27;10.97;;;6.43;;
21188;SDS011;39071;52.420;20.896;2022-09-09T04:52:53;9.13;;;6.20;;
21188;SDS011;39071;52.420;20.896;2022-09-09T04:55:19;9.00;;;5.87;;
21188;SDS011;39071;52.420;20.896;2022-09-09T04:57:45;9.70;;;6.33;;
21188;SDS011;39071;52.420;20.896;2022-09-09T05:00:11;9.67;;;6.07;;
21188;SDS011;39071;52.420;20.896;2022-09-09T05:02:37;9.40;;;6.40;;
21188;SDS011;39071;52.420;20.896;2022-09-09T05:05:04;13.83;;;6.30;;
21188;SDS011;39071;52.420;20.896;2022-09-09T05:07:30;8.07;;;5.80;;
21188;SDS011;39071;52.420;20.896;2022-09-09T05:09:56;9.03;;;6.00;;
21188;SDS011;39071;52.420;20.896;2022-09-09T05:12:22;9.77;;;5.43;;
21188;SDS011;39071;52.420;20.896;2022-09-09T05:14:50;9.60;;;6.40;;
21188;SDS011;39071;52.420;20.896;2022-09-09T05:17:16;10.20;;;6.33;;
21188;SDS011;39071;52.420;20.896;2022-09-09T05:19:42;8.57;;;6.03;;
21188;SDS011;39071;52.420;20.896;2022-09-09T05:22:09;9.37;;;5.33;;
21188;SDS011;39071;52.420;20.896;2022-09-09T05:24:36;9.13;;;5.90;;
21188;SDS011;39071;52.420;20.896;2022-09-09T05:27:01;8.93;;;5.37;;
21188;SDS011;39071;52.420;20.896;2022-09-09T05:29:27;9.33;;;6.00;;
21188;SDS011;39071;52.420;20.896;2022-09-09T05:31:53;9.57;;;6.00;;
21188;SDS011;39071;52.420;20.896;2022-09-09T05:34:19;9.53;;;5.90;;
21188;SDS011;39071;52.420;20.896;2022-09-09T05:36:46;8.40;;;5.90;;
21188;SDS011;39071;52.420;20.896;2022-09-09T05:39:12;8.20;;;5.83;;
21188;SDS011;39071;52.420;20.896;2022-09-09T05:41:38;8.77;;;5.70;;
21188;SDS011;39071;52.420;20.896;2022-09-09T05:44:03;9.40;;;5.60;;
21188;SDS011;39071;52.420;20.896;2022-09-09T05:46:30;10.60;;;6.60;;
21188;SDS011;39071;52.420;20.896;2022-09-09T05:48:56;8.97;;;5.83;;
21188;SDS011;39071;52.420;20.896;2022-09-09T05:51:26;7.40;;;6.07;;
21188;SDS011;39071;52.420;20.896;2022-09-09T05:53:55;8.73;;;6.13;;
21188;SDS011;39071;52.420;20.896;2022-09-09T05:56:25;8.73;;;5.80;;
21188;SDS011;39071;52.420;20.896;2022-09-09T05:58:53;8.50;;;5.80;;
21188;SDS011;39071;52.420;20.896;2022-09-09T06:01:20;9.10;;;5.77;;
21188;SDS011;39071;52.420;20.896;2022-09-09T06:03:48;9.63;;;5.90;;
21188;SDS011;39071;52.420;20.896;2022-09-09T06:06:16;7.90;;;5.77;;
21188;SDS011;39071;52.420;20.896;2022-09-09T06:08:46;8.50;;;6.20;;
21188;SDS011;39071;52.420;20.896;2022-09-09T06:11:14;9.20;;;5.67;;
21188;SDS011;39071;52.420;20.896;2022-09-09T06:13:42;7.87;;;5.80;;
21188;SDS011;39071;52.420;20.896;2022-09-09T06:16:12;9.03;;;5.13;;
21188;SDS011;39071;52.420;20.896;2022-09-09T06:18:41;7.20;;;5.27;;
21188;SDS011;39071;52.420;20.896;2022-09-09T06:21:19;7.43;;;5.40;;
21188;SDS011;39071;52.420;20.896;2022-09-09T06:23:46;7.83;;;5.70;;
21188;SDS011;39071;52.420;20.896;2022-09-09T06:26:20;7.43;;;4.93;;
21188;SDS011;39071;52.420;20.896;2022-09-09T06:28:51;9.53;;;5.40;;
21188;SDS011;39071;52.420;20.896;2022-09-09T06:31:18;9.00;;;5.63;;
21188;SDS011;39071;52.420;20.896;2022-09-09T06:33:47;6.80;;;5.50;;
21188;SDS011;39071;52.420;20.896;2022-09-09T06:36:18;10.83;;;5.23;;
21188;SDS011;39071;52.420;20.896;2022-09-09T06:38:45;7.43;;;5.00;;
21188;SDS011;39071;52.420;20.896;2022-09-09T06:41:12;7.90;;;5.63;;
21188;SDS011;39071;52.420;20.896;2022-09-09T06:43:40;9.40;;;5.33;;
21188;SDS011;39071;52.420;20.896;2022-09-09T06:46:12;5.87;;;5.10;;
21188;SDS011;39071;52.420;20.896;2022-09-09T06:48:43;7.43;;;4.70;;
21188;SDS011;39071;52.420;20.896;2022-09-09T06:51:11;7.50;;;4.77;;
21188;SDS011;39071;52.420;20.896;2022-09-09T06:53:39;7.07;;;5.43;;
21188;SDS011;39071;52.420;20.896;2022-09-09T06:56:19;7.50;;;4.40;;
21188;SDS011;39071;52.420;20.896;2022-09-09T06:58:53;5.67;;;4.40;;
21188;SDS011;39071;52.420;20.896;2022-09-09T07:01:24;6.27;;;4.73;;
21188;SDS011;39071;52.420;20.896;2022-09-09T07:03:53;6.97;;;4.60;;
21188;SDS011;39071;52.420;20.896;2022-09-09T07:06:22;5.73;;;4.67;;
21188;SDS011;39071;52.420;20.896;2022-09-09T07:08:52;5.37;;;4.47;;
21188;SDS011;39071;52.420;20.896;2022-09-09T07:11:20;7.40;;;4.50;;
21188;SDS011;39071;52.420;20.896;2022-09-09T07:13:47;5.93;;;4.67;;
21188;SDS011;39071;52.420;20.896;2022-09-09T07:16:17;7.97;;;4.40;;
21188;SDS011;39071;52.420;20.896;2022-09-09T07:18:45;7.90;;;3.90;;
21188;SDS011;39071;52.420;20.896;2022-09-09T07:21:12;4.63;;;3.73;;
21188;SDS011;39071;52.420;20.896;2022-09-09T07:23:39;6.43;;;4.20;;
21188;SDS011;39071;52.420;20.896;2022-09-09T07:26:12;7.57;;;3.90;;
21188;SDS011;39071;52.420;20.896;2022-09-09T07:28:40;6.37;;;4.27;;
21188;SDS011;39071;52.420;20.896;2022-09-09T07:31:07;5.17;;;4.57;;
21188;SDS011;39071;52.420;20.896;2022-09-09T07:33:38;7.80;;;5.10;;
21188;SDS011;39071;52.420;20.896;2022-09-09T07:38:46;9.13;;;5.83;;
21188;SDS011;39071;52.420;20.896;2022-09-09T07:41:15;6.90;;;5.50;;
21188;SDS011;39071;52.420;20.896;2022-09-09T07:43:44;6.53;;;4.67;;
21188;SDS011;39071;52.420;20.896;2022-09-09T07:46:12;6.90;;;5.43;;
21188;SDS011;39071;52.420;20.896;2022-09-09T07:48:46;7.10;;;5.57;;
21188;SDS011;39071;52.420;20.896;2022-09-09T07:51:17;9.70;;;5.67;;
21188;SDS011;39071;52.420;20.896;2022-09-09T07:53:46;5.90;;;4.90;;
21188;SDS011;39071;52.420;20.896;2022-09-09T07:56:14;6.50;;;5.33;;
21188;SDS011;39071;52.420;20.896;2022-09-09T07:58:41;6.30;;;5.13;;
21188;SDS011;39071;52.420;20.896;2022-09-09T08:01:10;6.93;;;4.90;;
21188;SDS011;39071;52.420;20.896;2022-09-09T08:03:57;6.33;;;5.20;;
21188;SDS011;39071;52.420;20.896;2022-09-09T08:06:26;6.70;;;4.97;;
21188;SDS011;39071;52.420;20.896;2022-09-09T08:08:53;7.40;;;5.33;;
21188;SDS011;39071;52.420;20.896;2022-09-09T08:11:20;7.43;;;5.33;;
21188;SDS011;39071;52.420;20.896;2022-09-09T08:13:48;6.77;;;4.70;;
21188;SDS011;39071;52.420;20.896;2022-09-09T08:16:16;7.30;;;5.60;;
21188;SDS011;39071;52.420;20.896;2022-09-09T08:18:44;8.50;;;5.53;;
21188;SDS011;39071;52.420;20.896;2022-09-09T08:23:41;17.80;;;6.57;;
21188;SDS011;39071;52.420;20.896;2022-09-09T08:26:10;10.30;;;5.93;;
21188;SDS011;39071;52.420;20.896;2022-09-09T08:28:37;8.30;;;5.97;;
21188;SDS011;39071;52.420;20.896;2022-09-09T08:31:14;9.07;;;5.80;;
21188;SDS011;39071;52.420;20.896;2022-09-09T08:33:42;9.30;;;6.40;;
21188;SDS011;39071;52.420;20.896;2022-09-09T08:36:20;10.37;;;6.50;;
21188;SDS011;39071;52.420;20.896;2022-09-09T08:38:48;11.57;;;6.47;;
21188;SDS011;39071;52.420;20.896;2022-09-09T08:43:46;13.43;;;7.07;;
21188;SDS011;39071;52.420;20.896;2022-09-09T08:52:14;11.17;;;6.87;;
21188;SDS011;39071;52.420;20.896;2022-09-09T08:54:44;12.13;;;7.70;;
21188;SDS011;39071;52.420;20.896;2022-09-09T08:57:13;13.63;;;7.43;;
21188;SDS011;39071;52.420;20.896;2022-09-09T08:59:44;11.03;;;8.13;;
21188;SDS011;39071;52.420;20.896;2022-09-09T09:02:17;10.70;;;8.10;;
21188;SDS011;39071;52.420;20.896;2022-09-09T09:07:51;9.43;;;7.63;;
21188;SDS011;39071;52.420;20.896;2022-09-09T09:12:55;13.00;;;9.03;;
21188;SDS011;39071;52.420;20.896;2022-09-09T09:15:25;12.23;;;8.30;;
21188;SDS011;39071;52.420;20.896;2022-09-09T09:17:53;11.30;;;8.37;;
21188;SDS011;39071;52.420;20.896;2022-09-09T09:20:22;16.37;;;10.13;;
21188;SDS011;39071;52.420;20.896;2022-09-09T09:22:55;12.37;;;8.53;;
21188;SDS011;39071;52.420;20.896;2022-09-09T09:25:31;14.27;;;8.63;;
21188;SDS011;39071;52.420;20.896;2022-09-09T09:30:35;12.20;;;7.83;;
21188;SDS011;39071;52.420;20.896;2022-09-09T09:33:18;15.33;;;9.17;;
21188;SDS011;39071;52.420;20.896;2022-09-09T09:35:49;13.70;;;9.43;;
21188;SDS011;39071;52.420;20.896;2022-09-09T09:38:25;12.97;;;9.57;;
21188;SDS011;39071;52.420;20.896;2022-09-09T09:40:56;14.43;;;9.53;;
21188;SDS011;39071;52.420;20.896;2022-09-09T09:43:27;12.83;;;8.70;;
21188;SDS011;39071;52.420;20.896;2022-09-09T09:46:04;13.83;;;9.10;;
21188;SDS011;39071;52.420;20.896;2022-09-09T09:48:43;14.30;;;9.50;;
21188;SDS011;39071;52.420;20.896;2022-09-09T09:51:11;15.23;;;8.83;;
21188;SDS011;39071;52.420;20.896;2022-09-09T09:53:42;15.10;;;9.67;;
21188;SDS011;39071;52.420;20.896;2022-09-09T09:56:09;13.93;;;9.43;;
21188;SDS011;39071;52.420;20.896;2022-09-09T09:58:48;16.27;;;10.17;;
21188;SDS011;39071;52.420;20.896;2022-09-09T10:01:29;13.63;;;9.93;;
21188;SDS011;39071;52.420;20.896;2022-09-09T10:04:40;15.07;;;9.53;;
21188;SDS011;39071;52.420;20.896;2022-09-09T10:06:51;17.30;;;9.97;;
21188;SDS011;39071;52.420;20.896;2022-09-09T10:09:21;15.80;;;9.77;;
21188;SDS011;39071;52.420;20.896;2022-09-09T10:18:12;16.77;;;10.53;;
21188;SDS011;39071;52.420;20.896;2022-09-09T10:20:22;17.93;;;10.73;;
21188;SDS011;39071;52.420;20.896;2022-09-09T10:31:50;18.33;;;10.10;;
21188;SDS011;39071;52.420;20.896;2022-09-09T10:34:47;18.07;;;11.13;;
21188;SDS011;39071;52.420;20.896;2022-09-09T10:42:58;20.13;;;12.10;;
21188;SDS011;39071;52.420;20.896;2022-09-09T10:48:36;22.27;;;13.67;;
21188;SDS011;39071;52.420;20.896;2022-09-09T10:51:22;23.57;;;12.60;;
21188;SDS011;39071;52.420;20.896;2022-09-09T10:56:32;18.20;;;11.67;;
21188;SDS011;39071;52.420;20.896;2022-09-09T10:59:04;19.17;;;11.70;;
21188;SDS011;39071;52.420;20.896;2022-09-09T11:01:40;19.93;;;12.47;;
21188;SDS011;39071;52.420;20.896;2022-09-09T11:04:28;19.53;;;12.50;;
21188;SDS011;39071;52.420;20.896;2022-09-09T11:07:15;24.87;;;13.57;;
21188;SDS011;39071;52.420;20.896;2022-09-09T11:10:06;23.57;;;12.77;;
21188;SDS011;39071;52.420;20.896;2022-09-09T11:13:01;21.07;;;12.93;;
21188;SDS011;39071;52.420;20.896;2022-09-09T11:15:31;21.73;;;13.37;;
21188;SDS011;39071;52.420;20.896;2022-09-09T11:18:05;19.67;;;13.50;;
21188;SDS011;39071;52.420;20.896;2022-09-09T11:20:36;24.10;;;13.80;;
21188;SDS011;39071;52.420;20.896;2022-09-09T11:23:09;23.27;;;14.73;;
21188;SDS011;39071;52.420;20.896;2022-09-09T11:25:45;25.93;;;14.23;;
21188;SDS011;39071;52.420;20.896;2022-09-09T11:36:45;23.63;;;15.37;;
21188;SDS011;39071;52.420;20.896;2022-09-09T11:42:05;24.53;;;15.00;;
21188;SDS011;39071;52.420;20.896;2022-09-09T11:44:51;23.57;;;15.10;;
21188;SDS011;39071;52.420;20.896;2022-09-09T11:47:30;26.23;;;16.63;;
21188;SDS011;39071;52.420;20.896;2022-09-09T11:52:44;26.77;;;15.93;;
21188;SDS011;39071;52.420;20.896;2022-09-09T11:57:58;32.43;;;17.93;;
21188;SDS011;39071;52.420;20.896;2022-09-09T12:03:02;26.63;;;15.53;;
21188;SDS011;39071;52.420;20.896;2022-09-09T12:05:51;26.43;;;16.20;;
21188;SDS011;39071;52.420;20.896;2022-09-09T12:08:19;26.87;;;15.73;;
21188;SDS011;39071;52.420;20.896;2022-09-09T12:10:53;26.47;;;16.30;;
21188;SDS011;39071;52.420;20.896;2022-09-09T12:13:22;26.77;;;15.83;;
21188;SDS011;39071;52.420;20.896;2022-09-09T12:15:56;26.63;;;14.90;;
21188;SDS011;39071;52.420;20.896;2022-09-09T12:21:37;28.70;;;15.67;;
21188;SDS011;39071;52.420;20.896;2022-09-09T12:23:50;29.07;;;16.43;;
21188;SDS011;39071;52.420;20.896;2022-09-09T12:31:46;30.13;;;16.93;;
21188;SDS011;39071;52.420;20.896;2022-09-09T12:36:42;30.33;;;16.47;;
21188;SDS011;39071;52.420;20.896;2022-09-09T12:39:25;28.90;;;16.97;;
21188;SDS011;39071;52.420;20.896;2022-09-09T12:41:56;34.63;;;17.50;;
21188;SDS011;39071;52.420;20.896;2022-09-09T12:44:22;31.53;;;17.73;;
21188;SDS011;39071;52.420;20.896;2022-09-09T12:46:50;31.97;;;17.33;;
21188;SDS011;39071;52.420;20.896;2022-09-09T12:49:34;35.07;;;18.97;;
21188;SDS011;39071;52.420;20.896;2022-09-09T12:52:25;26.17;;;16.20;;
21188;SDS011;39071;52.420;20.896;2022-09-09T12:54:52;33.20;;;17.13;;
21188;SDS011;39071;52.420;20.896;2022-09-09T12:57:18;31.07;;;18.80;;
21188;SDS011;39071;52.420;20.896;2022-09-09T12:59:47;30.97;;;17.30;;
21188;SDS011;39071;52.420;20.896;2022-09-09T13:04:48;34.20;;;17.77;;
21188;SDS011;39071;52.420;20.896;2022-09-09T13:07:15;37.27;;;18.57;;
21188;SDS011;39071;52.420;20.896;2022-09-09T13:09:47;34.43;;;18.20;;
21188;SDS011;39071;52.420;20.896;2022-09-09T13:12:21;34.67;;;19.40;;
21188;SDS011;39071;52.420;20.896;2022-09-09T13:14:53;30.33;;;18.70;;
21188;SDS011;39071;52.420;20.896;2022-09-09T13:17:22;32.50;;;19.17;;
21188;SDS011;39071;52.420;20.896;2022-09-09T13:19:49;36.03;;;19.20;;
21188;SDS011;39071;52.420;20.896;2022-09-09T13:22:22;40.07;;;18.63;;
21188;SDS011;39071;52.420;20.896;2022-09-09T13:27:32;35.30;;;18.13;;
21188;SDS011;39071;52.420;20.896;2022-09-09T13:35:34;39.67;;;19.93;;
21188;SDS011;39071;52.420;20.896;2022-09-09T13:38:12;38.70;;;19.30;;
21188;SDS011;39071;52.420;20.896;2022-09-09T13:40:39;39.83;;;21.23;;
21188;SDS011;39071;52.420;20.896;2022-09-09T13:43:05;33.23;;;19.80;;
21188;SDS011;39071;52.420;20.896;2022-09-09T13:45:51;37.53;;;20.27;;
21188;SDS011;39071;52.420;20.896;2022-09-09T13:48:19;41.63;;;21.37;;
21188;SDS011;39071;52.420;20.896;2022-09-09T13:50:53;40.57;;;20.47;;
21188;SDS011;39071;52.420;20.896;2022-09-09T13:53:41;46.40;;;21.00;;
21188;SDS011;39071;52.420;20.896;2022-09-09T13:56:07;39.57;;;19.97;;
21188;SDS011;39071;52.420;20.896;2022-09-09T13:58:33;40.93;;;20.07;;
21188;SDS011;39071;52.420;20.896;2022-09-09T14:00:59;40.40;;;19.93;;
21188;SDS011;39071;52.420;20.896;2022-09-09T14:03:25;44.13;;;21.20;;
21188;SDS011;39071;52.420;20.896;2022-09-09T14:05:50;43.87;;;20.87;;
21188;SDS011;39071;52.420;20.896;2022-09-09T14:08:20;46.43;;;22.03;;
21188;SDS011;39071;52.420;20.896;2022-09-09T14:10:48;38.70;;;19.67;;
21188;SDS011;39071;52.420;20.896;2022-09-09T14:13:14;42.07;;;20.60;;
21188;SDS011;39071;52.420;20.896;2022-09-09T14:15:40;41.10;;;19.93;;
21188;SDS011;39071;52.420;20.896;2022-09-09T14:18:08;45.83;;;21.93;;
21188;SDS011;39071;52.420;20.896;2022-09-09T14:20:36;43.13;;;21.57;;
21188;SDS011;39071;52.420;20.896;2022-09-09T14:23:02;42.37;;;19.97;;
21188;SDS011;39071;52.420;20.896;2022-09-09T14:25:28;42.10;;;20.57;;
21188;SDS011;39071;52.420;20.896;2022-09-09T14:27:54;40.50;;;20.23;;
21188;SDS011;39071;52.420;20.896;2022-09-09T14:30:21;44.50;;;20.30;;
21188;SDS011;39071;52.420;20.896;2022-09-09T14:32:47;44.10;;;21.47;;
21188;SDS011;39071;52.420;20.896;2022-09-09T14:35:13;48.03;;;21.77;;
21188;SDS011;39071;52.420;20.896;2022-09-09T14:37:39;43.83;;;20.20;;
21188;SDS011;39071;52.420;20.896;2022-09-09T14:40:04;40.87;;;20.47;;
21188;SDS011;39071;52.420;20.896;2022-09-09T14:42:31;42.93;;;19.87;;
21188;SDS011;39071;52.420;20.896;2022-09-09T14:44:56;46.23;;;21.57;;
21188;SDS011;39071;52.420;20.896;2022-09-09T14:47:22;38.63;;;20.07;;
21188;SDS011;39071;52.420;20.896;2022-09-09T14:49:48;39.00;;;19.70;;
21188;SDS011;39071;52.420;20.896;2022-09-09T14:52:14;42.33;;;19.73;;
21188;SDS011;39071;52.420;20.896;2022-09-09T14:54:41;45.63;;;20.90;;
21188;SDS011;39071;52.420;20.896;2022-09-09T14:57:06;42.43;;;20.50;;
21188;SDS011;39071;52.420;20.896;2022-09-09T14:59:32;39.97;;;20.60;;
21188;SDS011;39071;52.420;20.896;2022-09-09T15:01:59;39.50;;;20.13;;
21188;SDS011;39071;52.420;20.896;2022-09-09T15:04:29;39.87;;;20.97;;
21188;SDS011;39071;52.420;20.896;2022-09-09T15:06:54;45.10;;;19.37;;
21188;SDS011;39071;52.420;20.896;2022-09-09T15:09:20;35.50;;;19.47;;
21188;SDS011;39071;52.420;20.896;2022-09-09T15:11:46;37.87;;;19.07;;
21188;SDS011;39071;52.420;20.896;2022-09-09T15:14:12;36.50;;;19.37;;
21188;SDS011;39071;52.420;20.896;2022-09-09T15:16:38;37.20;;;19.40;;
21188;SDS011;39071;52.420;20.896;2022-09-09T15:19:04;41.10;;;18.17;;
21188;SDS011;39071;52.420;20.896;2022-09-09T15:21:32;38.33;;;19.30;;
21188;SDS011;39071;52.420;20.896;2022-09-09T15:23:59;36.23;;;19.00;;
21188;SDS011;39071;52.420;20.896;2022-09-09T15:26:25;44.43;;;20.10;;
21188;SDS011;39071;52.420;20.896;2022-09-09T15:28:52;35.10;;;19.07;;
21188;SDS011;39071;52.420;20.896;2022-09-09T15:31:20;34.70;;;18.70;;
21188;SDS011;39071;52.420;20.896;2022-09-09T15:33:51;36.47;;;18.37;;
21188;SDS011;39071;52.420;20.896;2022-09-09T15:36:18;37.37;;;19.73;;
21188;SDS011;39071;52.420;20.896;2022-09-09T15:38:48;34.37;;;18.77;;
21188;SDS011;39071;52.420;20.896;2022-09-09T15:41:15;35.00;;;19.07;;
21188;SDS011;39071;52.420;20.896;2022-09-09T15:43:45;32.23;;;17.60;;
21188;SDS011;39071;52.420;20.896;2022-09-09T15:48:42;36.10;;;17.90;;
21188;SDS011;39071;52.420;20.896;2022-09-09T15:51:09;37.05;;;18.77;;
21188;SDS011;39071;52.420;20.896;2022-09-09T15:53:36;34.88;;;18.38;;
21188;SDS011;39071;52.420;20.896;2022-09-09T15:56:04;34.77;;;17.70;;
21188;SDS011;39071;52.420;20.896;2022-09-09T15:58:31;37.97;;;19.17;;
21188;SDS011;39071;52.420;20.896;2022-09-09T16:01:07;34.33;;;18.83;;
21188;SDS011;39071;52.420;20.896;2022-09-09T16:03:34;33.03;;;17.33;;
21188;SDS011;39071;52.420;20.896;2022-09-09T16:06:01;31.13;;;16.47;;
21188;SDS011;39071;52.420;20.896;2022-09-09T16:08:45;33.00;;;18.43;;
21188;SDS011;39071;52.420;20.896;2022-09-09T16:11:13;34.43;;;17.83;;
21188;SDS011;39071;52.420;20.896;2022-09-09T16:13:45;31.57;;;18.20;;
21188;SDS011;39071;52.420;20.896;2022-09-09T16:16:13;35.03;;;18.30;;
21188;SDS011;39071;52.420;20.896;2022-09-09T16:18:41;33.93;;;18.00;;
21188;SDS011;39071;52.420;20.896;2022-09-09T16:21:12;34.20;;;17.83;;
21188;SDS011;39071;52.420;20.896;2022-09-09T16:23:46;33.57;;;18.60;;
21188;SDS011;39071;52.420;20.896;2022-09-09T16:26:14;34.30;;;18.03;;
21188;SDS011;39071;52.420;20.896;2022-09-09T16:28:41;33.73;;;18.60;;
21188;SDS011;39071;52.420;20.896;2022-09-09T16:31:11;39.20;;;19.77;;
21188;SDS011;39071;52.420;20.896;2022-09-09T16:33:39;35.27;;;19.90;;
21188;SDS011;39071;52.420;20.896;2022-09-09T16:36:07;43.03;;;20.47;;
21188;SDS011;39071;52.420;20.896;2022-09-09T16:38:56;35.27;;;18.93;;
21188;SDS011;39071;52.420;20.896;2022-09-09T16:41:24;35.37;;;19.37;;
21188;SDS011;39071;52.420;20.896;2022-09-09T16:44:01;35.30;;;19.57;;
21188;SDS011;39071;52.420;20.896;2022-09-09T16:46:29;38.37;;;21.13;;
21188;SDS011;39071;52.420;20.896;2022-09-09T16:48:57;37.30;;;20.13;;
21188;SDS011;39071;52.420;20.896;2022-09-09T16:51:29;40.20;;;21.27;;
21188;SDS011;39071;52.420;20.896;2022-09-09T16:54:00;37.33;;;19.80;;
21188;SDS011;39071;52.420;20.896;2022-09-09T16:56:28;34.47;;;18.87;;
21188;SDS011;39071;52.420;20.896;2022-09-09T16:58:57;38.87;;;20.97;;